sensor_id;sensor_type;location;lat;lon;timestamp;temperature;humidity
71096;DHT22;58753;49.440;11.126;2023-05-09T00:02:00;12.79;76.33
71096;DHT22;58753;49.440;11.126;2023-05-09T00:04:26;12.71;76.31
71096;DHT22;58753;49.440;11.126;2023-05-09T00:06:51;12.68;76.24
71096;DHT22;58753;49.440;11.126;2023-05-09T00:09:17;12.63;76.17
71096;DHT22;58753;49.440;11.126;2023-05-09T00:11:43;12.61;76.01
71096;DHT22;58753;49.440;11.126;2023-05-09T00:14:09;12.59;76.01
71096;DHT22;58753;49.440;11.126;2023-05-09T00:16:36;12.59;76.04
71096;DHT22;58753;49.440;11.126;2023-05-09T00:19:02;12.59;76.12
71096;DHT22;58753;49.440;11.126;2023-05-09T00:21:28;12.55;75.97
71096;DHT22;58753;49.440;11.126;2023-05-09T00:23:54;12.56;75.86
71096;DHT22;58753;49.440;11.126;2023-05-09T00:26:20;12.56;75.95
71096;DHT22;58753;49.440;11.126;2023-05-09T00:28:46;12.58;76.00
71096;DHT22;58753;49.440;11.126;2023-05-09T00:31:12;12.59;76.26
71096;DHT22;58753;49.440;11.126;2023-05-09T00:33:37;12.59;76.08
71096;DHT22;58753;49.440;11.126;2023-05-09T00:36:03;12.56;76.13
71096;DHT22;58753;49.440;11.126;2023-05-09T00:38:28;12.56;76.22
71096;DHT22;58753;49.440;11.126;2023-05-09T00:40:54;12.54;76.17
71096;DHT22;58753;49.440;11.126;2023-05-09T00:43:20;12.51;76.09
71096;DHT22;58753;49.440;11.126;2023-05-09T00:45:45;12.52;76.30
71096;DHT22;58753;49.440;11.126;2023-05-09T00:48:11;12.51;76.35
71096;DHT22;58753;49.440;11.126;2023-05-09T00:50:38;12.51;76.45
71096;DHT22;58753;49.440;11.126;2023-05-09T00:53:04;12.49;76.60
71096;DHT22;58753;49.440;11.126;2023-05-09T00:55:30;12.49;76.67
71096;DHT22;58753;49.440;11.126;2023-05-09T00:57:56;12.46;76.62
71096;DHT22;58753;49.440;11.126;2023-05-09T01:00:21;12.42;76.58
71096;DHT22;58753;49.440;11.126;2023-05-09T01:02:49;12.42;76.62
71096;DHT22;58753;49.440;11.126;2023-05-09T01:05:17;12.38;76.56
71096;DHT22;58753;49.440;11.126;2023-05-09T01:12:58;12.35;76.57
71096;DHT22;58753;49.440;11.126;2023-05-09T01:20:54;12.35;76.85
71096;DHT22;58753;49.440;11.126;2023-05-09T01:31:37;12.31;77.17
71096;DHT22;58753;49.440;11.126;2023-05-09T01:34:04;12.28;77.11
71096;DHT22;58753;49.440;11.126;2023-05-09T01:36:31;12.27;77.07
71096;DHT22;58753;49.440;11.126;2023-05-09T01:38:58;12.27;77.09
71096;DHT22;58753;49.440;11.126;2023-05-09T01:41:24;12.27;77.05
71096;DHT22;58753;49.440;11.126;2023-05-09T01:43:55;12.27;77.10
71096;DHT22;58753;49.440;11.126;2023-05-09T01:46:24;12.24;77.09
71096;DHT22;58753;49.440;11.126;2023-05-09T01:48:51;12.25;77.20
71096;DHT22;58753;49.440;11.126;2023-05-09T01:51:18;12.24;77.22
71096;DHT22;58753;49.440;11.126;2023-05-09T01:53:47;12.22;77.16
71096;DHT22;58753;49.440;11.126;2023-05-09T01:56:13;12.21;77.15
71096;DHT22;58753;49.440;11.126;2023-05-09T01:58:39;12.20;77.21
71096;DHT22;58753;49.440;11.126;2023-05-09T02:01:06;12.21;77.29
71096;DHT22;58753;49.440;11.126;2023-05-09T02:03:33;12.22;77.28
71096;DHT22;58753;49.440;11.126;2023-05-09T02:06:00;12.21;77.44
71096;DHT22;58753;49.440;11.126;2023-05-09T02:08:28;12.22;77.56
71096;DHT22;58753;49.440;11.126;2023-05-09T02:10:53;12.24;77.57
71096;DHT22;58753;49.440;11.126;2023-05-09T02:13:19;12.24;77.63
71096;DHT22;58753;49.440;11.126;2023-05-09T02:15:45;12.24;77.66
71096;DHT22;58753;49.440;11.126;2023-05-09T02:18:11;12.24;77.64
71096;DHT22;58753;49.440;11.126;2023-05-09T02:20:38;12.21;77.57
71096;DHT22;58753;49.440;11.126;2023-05-09T02:23:03;12.24;77.57
71096;DHT22;58753;49.440;11.126;2023-05-09T02:25:30;12.24;77.50
71096;DHT22;58753;49.440;11.126;2023-05-09T02:27:56;12.28;77.38
71096;DHT22;58753;49.440;11.126;2023-05-09T02:30:23;12.28;77.41
71096;DHT22;58753;49.440;11.126;2023-05-09T02:33:01;12.27;77.17
71096;DHT22;58753;49.440;11.126;2023-05-09T02:35:27;12.28;77.17
71096;DHT22;58753;49.440;11.126;2023-05-09T02:37:53;12.24;76.96
71096;DHT22;58753;49.440;11.126;2023-05-09T02:40:19;12.24;76.98
71096;DHT22;58753;49.440;11.126;2023-05-09T02:42:45;12.22;76.94
71096;DHT22;58753;49.440;11.126;2023-05-09T02:45:11;12.25;76.92
71096;DHT22;58753;49.440;11.126;2023-05-09T02:47:37;12.24;76.83
71096;DHT22;58753;49.440;11.126;2023-05-09T02:50:03;12.24;76.92
71096;DHT22;58753;49.440;11.126;2023-05-09T02:52:29;12.24;76.62
71096;DHT22;58753;49.440;11.126;2023-05-09T02:54:54;12.22;76.59
71096;DHT22;58753;49.440;11.126;2023-05-09T02:57:19;12.22;76.62
71096;DHT22;58753;49.440;11.126;2023-05-09T02:59:45;12.20;76.47
71096;DHT22;58753;49.440;11.126;2023-05-09T03:02:10;12.18;76.42
71096;DHT22;58753;49.440;11.126;2023-05-09T03:04:36;12.17;76.35
71096;DHT22;58753;49.440;11.126;2023-05-09T03:07:02;12.18;76.22
71096;DHT22;58753;49.440;11.126;2023-05-09T03:09:28;12.14;76.08
71096;DHT22;58753;49.440;11.126;2023-05-09T03:11:54;12.10;76.14
71096;DHT22;58753;49.440;11.126;2023-05-09T03:14:20;12.05;76.21
71096;DHT22;58753;49.440;11.126;2023-05-09T03:16:46;12.05;76.22
71096;DHT22;58753;49.440;11.126;2023-05-09T03:19:11;12.05;76.34
71096;DHT22;58753;49.440;11.126;2023-05-09T03:21:37;11.98;76.35
71096;DHT22;58753;49.440;11.126;2023-05-09T03:24:02;11.94;76.41
71096;DHT22;58753;49.440;11.126;2023-05-09T03:26:29;11.93;76.42
71096;DHT22;58753;49.440;11.126;2023-05-09T03:28:54;11.89;76.48
71096;DHT22;58753;49.440;11.126;2023-05-09T03:31:20;11.89;76.76
71096;DHT22;58753;49.440;11.126;2023-05-09T03:33:45;11.84;76.78
71096;DHT22;58753;49.440;11.126;2023-05-09T03:36:10;11.84;76.98
71096;DHT22;58753;49.440;11.126;2023-05-09T03:38:36;11.79;77.09
71096;DHT22;58753;49.440;11.126;2023-05-09T03:41:01;11.74;77.28
71096;DHT22;58753;49.440;11.126;2023-05-09T03:43:28;11.73;77.40
71096;DHT22;58753;49.440;11.126;2023-05-09T03:45:53;11.71;77.68
71096;DHT22;58753;49.440;11.126;2023-05-09T03:48:18;11.70;77.85
71096;DHT22;58753;49.440;11.126;2023-05-09T03:50:44;11.69;77.99
71096;DHT22;58753;49.440;11.126;2023-05-09T03:53:09;11.69;78.28
71096;DHT22;58753;49.440;11.126;2023-05-09T03:55:34;11.71;78.56
71096;DHT22;58753;49.440;11.126;2023-05-09T03:58:00;11.76;78.85
71096;DHT22;58753;49.440;11.126;2023-05-09T04:00:25;11.73;79.14
71096;DHT22;58753;49.440;11.126;2023-05-09T04:02:51;11.76;79.30
71096;DHT22;58753;49.440;11.126;2023-05-09T04:05:17;11.74;79.37
71096;DHT22;58753;49.440;11.126;2023-05-09T04:07:43;11.74;79.42
71096;DHT22;58753;49.440;11.126;2023-05-09T04:10:08;11.73;79.47
71096;DHT22;58753;49.440;11.126;2023-05-09T04:12:34;11.71;79.40
71096;DHT22;58753;49.440;11.126;2023-05-09T04:14:59;11.67;79.52
71096;DHT22;58753;49.440;11.126;2023-05-09T04:17:25;11.69;79.27
71096;DHT22;58753;49.440;11.126;2023-05-09T04:19:50;11.69;79.26
71096;DHT22;58753;49.440;11.126;2023-05-09T04:22:16;11.70;79.17
71096;DHT22;58753;49.440;11.126;2023-05-09T04:24:41;11.70;79.08
71096;DHT22;58753;49.440;11.126;2023-05-09T04:27:07;11.73;79.17
71096;DHT22;58753;49.440;11.126;2023-05-09T04:29:33;11.73;78.98
71096;DHT22;58753;49.440;11.126;2023-05-09T04:31:59;11.77;78.88
71096;DHT22;58753;49.440;11.126;2023-05-09T04:34:25;11.81;78.85
71096;DHT22;58753;49.440;11.126;2023-05-09T04:36:51;11.84;78.72
71096;DHT22;58753;49.440;11.126;2023-05-09T04:39:17;11.86;78.52
71096;DHT22;58753;49.440;11.126;2023-05-09T04:41:43;11.94;78.36
71096;DHT22;58753;49.440;11.126;2023-05-09T04:44:12;11.94;78.27
71096;DHT22;58753;49.440;11.126;2023-05-09T04:46:37;12.00;78.16
71096;DHT22;58753;49.440;11.126;2023-05-09T04:49:02;12.02;77.92
71096;DHT22;58753;49.440;11.126;2023-05-09T04:51:28;12.04;77.67
71096;DHT22;58753;49.440;11.126;2023-05-09T04:53:53;12.11;77.76
71096;DHT22;58753;49.440;11.126;2023-05-09T04:56:18;12.11;77.50
71096;DHT22;58753;49.440;11.126;2023-05-09T04:58:44;12.17;77.22
71096;DHT22;58753;49.440;11.126;2023-05-09T05:01:09;12.18;77.09
71096;DHT22;58753;49.440;11.126;2023-05-09T05:03:34;12.21;76.79
71096;DHT22;58753;49.440;11.126;2023-05-09T05:06:00;12.22;76.65
71096;DHT22;58753;49.440;11.126;2023-05-09T05:08:25;12.22;76.48
71096;DHT22;58753;49.440;11.126;2023-05-09T05:10:51;12.24;76.27
71096;DHT22;58753;49.440;11.126;2023-05-09T05:13:16;12.28;76.21
71096;DHT22;58753;49.440;11.126;2023-05-09T05:15:41;12.34;76.06
71096;DHT22;58753;49.440;11.126;2023-05-09T05:18:07;12.42;76.04
71096;DHT22;58753;49.440;11.126;2023-05-09T05:20:32;12.51;75.91
71096;DHT22;58753;49.440;11.126;2023-05-09T05:22:58;12.58;75.77
71096;DHT22;58753;49.440;11.126;2023-05-09T05:25:24;12.65;75.44
71096;DHT22;58753;49.440;11.126;2023-05-09T05:27:50;12.72;74.94
71096;DHT22;58753;49.440;11.126;2023-05-09T05:30:15;12.78;74.42
71096;DHT22;58753;49.440;11.126;2023-05-09T05:32:41;12.86;73.60
71096;DHT22;58753;49.440;11.126;2023-05-09T05:35:08;12.99;73.39
71096;DHT22;58753;49.440;11.126;2023-05-09T05:37:36;13.09;72.75
71096;DHT22;58753;49.440;11.126;2023-05-09T05:40:02;13.22;72.45
71096;DHT22;58753;49.440;11.126;2023-05-09T05:42:28;13.33;71.24
71096;DHT22;58753;49.440;11.126;2023-05-09T05:44:53;13.46;71.13
71096;DHT22;58753;49.440;11.126;2023-05-09T05:47:18;13.54;70.30
71096;DHT22;58753;49.440;11.126;2023-05-09T05:49:44;13.63;69.48
71096;DHT22;58753;49.440;11.126;2023-05-09T05:52:09;13.73;69.05
71096;DHT22;58753;49.440;11.126;2023-05-09T05:54:34;13.85;68.81
71096;DHT22;58753;49.440;11.126;2023-05-09T05:57:00;13.92;68.12
71096;DHT22;58753;49.440;11.126;2023-05-09T05:59:25;13.95;66.17
71096;DHT22;58753;49.440;11.126;2023-05-09T06:01:50;14.02;65.82
71096;DHT22;58753;49.440;11.126;2023-05-09T06:04:16;14.07;65.50
71096;DHT22;58753;49.440;11.126;2023-05-09T06:06:41;14.19;65.75
71096;DHT22;58753;49.440;11.126;2023-05-09T06:09:06;14.25;65.18
71096;DHT22;58753;49.440;11.126;2023-05-09T06:11:32;14.28;63.71
71096;DHT22;58753;49.440;11.126;2023-05-09T06:13:57;14.36;63.92
71096;DHT22;58753;49.440;11.126;2023-05-09T06:16:23;14.45;63.18
71096;DHT22;58753;49.440;11.126;2023-05-09T06:18:48;14.52;63.00
71096;DHT22;58753;49.440;11.126;2023-05-09T06:21:13;14.59;62.74
71096;DHT22;58753;49.440;11.126;2023-05-09T06:23:39;14.65;62.30
71096;DHT22;58753;49.440;11.126;2023-05-09T06:26:04;14.72;62.01
71096;DHT22;58753;49.440;11.126;2023-05-09T06:28:30;14.77;61.79
71096;DHT22;58753;49.440;11.126;2023-05-09T06:30:55;14.72;60.69
71096;DHT22;58753;49.440;11.126;2023-05-09T06:33:21;14.68;59.28
71096;DHT22;58753;49.440;11.126;2023-05-09T06:35:46;14.61;59.11
71096;DHT22;58753;49.440;11.126;2023-05-09T06:38:11;14.55;58.82
71096;DHT22;58753;49.440;11.126;2023-05-09T06:40:37;14.56;58.91
71096;DHT22;58753;49.440;11.126;2023-05-09T06:43:02;14.51;58.25
71096;DHT22;58753;49.440;11.126;2023-05-09T06:45:27;14.45;57.92
71096;DHT22;58753;49.440;11.126;2023-05-09T06:47:53;14.43;58.07
71096;DHT22;58753;49.440;11.126;2023-05-09T06:50:18;14.49;58.47
71096;DHT22;58753;49.440;11.126;2023-05-09T06:52:44;14.49;58.63
71096;DHT22;58753;49.440;11.126;2023-05-09T06:55:09;14.52;58.77
71096;DHT22;58753;49.440;11.126;2023-05-09T06:57:35;14.55;58.99
71096;DHT22;58753;49.440;11.126;2023-05-09T07:00:00;14.59;59.15
71096;DHT22;58753;49.440;11.126;2023-05-09T07:02:26;14.61;59.28
71096;DHT22;58753;49.440;11.126;2023-05-09T07:04:51;14.58;59.08
71096;DHT22;58753;49.440;11.126;2023-05-09T07:07:16;14.59;59.30
71096;DHT22;58753;49.440;11.126;2023-05-09T07:09:42;14.62;59.14
71096;DHT22;58753;49.440;11.126;2023-05-09T07:12:08;14.62;58.75
71096;DHT22;58753;49.440;11.126;2023-05-09T07:14:33;14.59;57.56
71096;DHT22;58753;49.440;11.126;2023-05-09T07:16:59;14.59;57.21
71096;DHT22;58753;49.440;11.126;2023-05-09T07:19:24;14.63;56.98
71096;DHT22;58753;49.440;11.126;2023-05-09T07:21:50;14.65;56.32
71096;DHT22;58753;49.440;11.126;2023-05-09T07:24:16;14.70;56.38
71096;DHT22;58753;49.440;11.126;2023-05-09T07:26:41;14.70;56.18
71096;DHT22;58753;49.440;11.126;2023-05-09T07:29:06;14.77;55.94
71096;DHT22;58753;49.440;11.126;2023-05-09T07:31:32;14.83;55.64
71096;DHT22;58753;49.440;11.126;2023-05-09T07:33:57;14.87;55.89
71096;DHT22;58753;49.440;11.126;2023-05-09T07:36:23;14.89;56.14
71096;DHT22;58753;49.440;11.126;2023-05-09T07:38:48;14.99;56.18
71096;DHT22;58753;49.440;11.126;2023-05-09T07:41:16;15.04;56.00
71096;DHT22;58753;49.440;11.126;2023-05-09T07:43:41;15.13;56.03
71096;DHT22;58753;49.440;11.126;2023-05-09T07:46:07;15.24;55.87
71096;DHT22;58753;49.440;11.126;2023-05-09T07:48:32;15.27;55.67
71096;DHT22;58753;49.440;11.126;2023-05-09T07:50:57;15.26;55.19
71096;DHT22;58753;49.440;11.126;2023-05-09T07:53:23;15.30;55.30
71096;DHT22;58753;49.440;11.126;2023-05-09T07:55:48;15.35;55.10
71096;DHT22;58753;49.440;11.126;2023-05-09T07:58:15;15.37;54.81
71096;DHT22;58753;49.440;11.126;2023-05-09T08:00:41;15.44;53.95
71096;DHT22;58753;49.440;11.126;2023-05-09T08:03:06;15.48;53.05
71096;DHT22;58753;49.440;11.126;2023-05-09T08:05:32;15.55;52.23
71096;DHT22;58753;49.440;11.126;2023-05-09T08:07:57;15.62;52.24
71096;DHT22;58753;49.440;11.126;2023-05-09T08:10:23;15.65;52.12
71096;DHT22;58753;49.440;11.126;2023-05-09T08:12:49;15.67;52.06
71096;DHT22;58753;49.440;11.126;2023-05-09T08:15:14;15.72;52.01
71096;DHT22;58753;49.440;11.126;2023-05-09T08:17:40;15.79;52.19
71096;DHT22;58753;49.440;11.126;2023-05-09T08:20:05;15.87;51.81
71096;DHT22;58753;49.440;11.126;2023-05-09T08:22:32;15.92;51.30
71096;DHT22;58753;49.440;11.126;2023-05-09T08:24:57;15.99;51.37
71096;DHT22;58753;49.440;11.126;2023-05-09T08:27:22;16.08;51.80
71096;DHT22;58753;49.440;11.126;2023-05-09T08:29:48;16.10;51.69
71096;DHT22;58753;49.440;11.126;2023-05-09T08:32:13;16.12;51.74
71096;DHT22;58753;49.440;11.126;2023-05-09T08:34:39;16.12;51.67
71096;DHT22;58753;49.440;11.126;2023-05-09T08:37:04;16.12;51.61
71096;DHT22;58753;49.440;11.126;2023-05-09T08:39:30;16.05;51.64
71096;DHT22;58753;49.440;11.126;2023-05-09T08:42:00;16.10;51.61
71096;DHT22;58753;49.440;11.126;2023-05-09T08:44:27;16.16;51.49
71096;DHT22;58753;49.440;11.126;2023-05-09T08:47:03;16.28;51.05
71096;DHT22;58753;49.440;11.126;2023-05-09T08:49:29;16.34;50.74
71096;DHT22;58753;49.440;11.126;2023-05-09T08:51:55;16.40;50.00
71096;DHT22;58753;49.440;11.126;2023-05-09T08:54:21;16.45;49.85
71096;DHT22;58753;49.440;11.126;2023-05-09T08:56:47;16.56;49.67
71096;DHT22;58753;49.440;11.126;2023-05-09T08:59:13;16.63;49.64
71096;DHT22;58753;49.440;11.126;2023-05-09T09:01:41;16.73;48.88
71096;DHT22;58753;49.440;11.126;2023-05-09T09:04:07;16.76;48.69
71096;DHT22;58753;49.440;11.126;2023-05-09T09:06:34;16.81;48.33
71096;DHT22;58753;49.440;11.126;2023-05-09T09:09:01;16.88;48.16
71096;DHT22;58753;49.440;11.126;2023-05-09T09:11:27;17.07;47.54
71096;DHT22;58753;49.440;11.126;2023-05-09T09:13:53;17.17;46.66
71096;DHT22;58753;49.440;11.126;2023-05-09T09:16:21;17.31;46.22
71096;DHT22;58753;49.440;11.126;2023-05-09T09:18:48;17.41;45.68
71096;DHT22;58753;49.440;11.126;2023-05-09T09:21:17;17.45;45.33
71096;DHT22;58753;49.440;11.126;2023-05-09T09:23:44;17.51;44.56
71096;DHT22;58753;49.440;11.126;2023-05-09T09:26:12;17.59;44.40
71096;DHT22;58753;49.440;11.126;2023-05-09T09:28:38;17.69;44.17
71096;DHT22;58753;49.440;11.126;2023-05-09T09:31:21;17.72;43.74
71096;DHT22;58753;49.440;11.126;2023-05-09T09:33:47;17.81;43.62
71096;DHT22;58753;49.440;11.126;2023-05-09T09:36:13;17.87;42.86
71096;DHT22;58753;49.440;11.126;2023-05-09T09:38:42;17.97;42.40
71096;DHT22;58753;49.440;11.126;2023-05-09T09:41:08;18.09;42.14
71096;DHT22;58753;49.440;11.126;2023-05-09T09:43:35;18.19;42.02
71096;DHT22;58753;49.440;11.126;2023-05-09T09:46:02;18.27;41.61
71096;DHT22;58753;49.440;11.126;2023-05-09T09:48:32;18.36;41.43
71096;DHT22;58753;49.440;11.126;2023-05-09T09:51:09;18.32;40.62
71096;DHT22;58753;49.440;11.126;2023-05-09T09:53:42;18.34;40.86
71096;DHT22;58753;49.440;11.126;2023-05-09T09:56:08;18.46;40.74
71096;DHT22;58753;49.440;11.126;2023-05-09T09:58:34;18.54;41.06
71096;DHT22;58753;49.440;11.126;2023-05-09T10:01:07;18.60;41.23
71096;DHT22;58753;49.440;11.126;2023-05-09T10:03:41;18.72;40.84
71096;DHT22;58753;49.440;11.126;2023-05-09T10:06:11;18.84;39.53
71096;DHT22;58753;49.440;11.126;2023-05-09T10:08:36;18.92;39.54
71096;DHT22;58753;49.440;11.126;2023-05-09T10:11:02;19.02;39.55
71096;DHT22;58753;49.440;11.126;2023-05-09T10:13:28;19.18;38.96
71096;DHT22;58753;49.440;11.126;2023-05-09T10:15:55;19.18;37.50
71096;DHT22;58753;49.440;11.126;2023-05-09T10:18:25;19.22;36.98
71096;DHT22;58753;49.440;11.126;2023-05-09T10:20:52;19.32;36.86
71096;DHT22;58753;49.440;11.126;2023-05-09T10:23:19;19.46;37.42
71096;DHT22;58753;49.440;11.126;2023-05-09T10:26:02;19.59;38.07
71096;DHT22;58753;49.440;11.126;2023-05-09T10:28:31;19.66;38.25
71096;DHT22;58753;49.440;11.126;2023-05-09T10:31:06;19.73;37.58
71096;DHT22;58753;49.440;11.126;2023-05-09T10:33:42;19.86;36.01
71096;DHT22;58753;49.440;11.126;2023-05-09T10:36:10;19.97;35.24
71096;DHT22;58753;49.440;11.126;2023-05-09T10:38:37;19.98;34.82
71096;DHT22;58753;49.440;11.126;2023-05-09T10:41:03;20.07;34.79
71096;DHT22;58753;49.440;11.126;2023-05-09T10:43:31;20.17;35.01
71096;DHT22;58753;49.440;11.126;2023-05-09T10:45:56;20.36;35.53
71096;DHT22;58753;49.440;11.126;2023-05-09T10:48:22;20.58;35.85
71096;DHT22;58753;49.440;11.126;2023-05-09T10:50:49;20.67;35.43
71096;DHT22;58753;49.440;11.126;2023-05-09T10:53:14;20.78;34.67
71096;DHT22;58753;49.440;11.126;2023-05-09T10:58:28;21.10;33.45
71096;DHT22;58753;49.440;11.126;2023-05-09T11:00:55;21.22;33.16
71096;DHT22;58753;49.440;11.126;2023-05-09T11:03:22;21.43;33.40
71096;DHT22;58753;49.440;11.126;2023-05-09T11:05:51;21.67;32.80
71096;DHT22;58753;49.440;11.126;2023-05-09T11:08:23;21.87;32.41
71096;DHT22;58753;49.440;11.126;2023-05-09T11:10:50;21.97;32.17
71096;DHT22;58753;49.440;11.126;2023-05-09T11:13:24;22.04;31.39
71096;DHT22;58753;49.440;11.126;2023-05-09T11:18:18;22.14;29.53
71096;DHT22;58753;49.440;11.126;2023-05-09T11:20:44;22.37;28.73
71096;DHT22;58753;49.440;11.126;2023-05-09T11:23:10;22.48;27.42
71096;DHT22;58753;49.440;11.126;2023-05-09T11:25:38;22.45;27.16
71096;DHT22;58753;49.440;11.126;2023-05-09T11:28:04;22.52;26.76
71096;DHT22;58753;49.440;11.126;2023-05-09T11:30:40;22.72;27.24
71096;DHT22;58753;49.440;11.126;2023-05-09T11:33:23;22.84;26.62
71096;DHT22;58753;49.440;11.126;2023-05-09T11:39:07;23.20;26.43
71096;DHT22;58753;49.440;11.126;2023-05-09T11:41:45;23.27;25.74
71096;DHT22;58753;49.440;11.126;2023-05-09T11:44:15;23.24;25.18
71096;DHT22;58753;49.440;11.126;2023-05-09T11:46:42;23.15;24.71
71096;DHT22;58753;49.440;11.126;2023-05-09T11:49:08;23.26;24.94
71096;DHT22;58753;49.440;11.126;2023-05-09T11:51:37;23.29;24.78
71096;DHT22;58753;49.440;11.126;2023-05-09T11:54:07;23.36;24.70
71096;DHT22;58753;49.440;11.126;2023-05-09T11:56:34;23.54;24.38
71096;DHT22;58753;49.440;11.126;2023-05-09T11:59:00;23.54;23.57
71096;DHT22;58753;49.440;11.126;2023-05-09T12:01:28;23.60;23.08
71096;DHT22;58753;49.440;11.126;2023-05-09T12:03:53;23.66;23.03
71096;DHT22;58753;49.440;11.126;2023-05-09T12:06:19;23.70;22.27
71096;DHT22;58753;49.440;11.126;2023-05-09T12:08:45;23.66;22.40
71096;DHT22;58753;49.440;11.126;2023-05-09T12:11:12;23.68;22.61
71096;DHT22;58753;49.440;11.126;2023-05-09T12:13:47;23.78;22.84
71096;DHT22;58753;49.440;11.126;2023-05-09T12:16:15;23.85;22.37
71096;DHT22;58753;49.440;11.126;2023-05-09T12:18:48;23.96;21.76
71096;DHT22;58753;49.440;11.126;2023-05-09T12:21:13;24.15;21.93
71096;DHT22;58753;49.440;11.126;2023-05-09T12:23:39;24.26;22.14
71096;DHT22;58753;49.440;11.126;2023-05-09T12:26:04;24.25;22.04
71096;DHT22;58753;49.440;11.126;2023-05-09T12:28:31;24.22;23.42
71096;DHT22;58753;49.440;11.126;2023-05-09T12:30:57;24.24;23.65
71096;DHT22;58753;49.440;11.126;2023-05-09T12:33:23;24.12;23.60
71096;DHT22;58753;49.440;11.126;2023-05-09T12:38:27;24.36;24.08
71096;DHT22;58753;49.440;11.126;2023-05-09T12:41:09;24.43;23.48
71096;DHT22;58753;49.440;11.126;2023-05-09T12:43:37;24.69;24.14
71096;DHT22;58753;49.440;11.126;2023-05-09T12:46:04;24.86;24.22
71096;DHT22;58753;49.440;11.126;2023-05-09T12:48:34;24.99;24.26
71096;DHT22;58753;49.440;11.126;2023-05-09T12:51:04;25.10;24.42
71096;DHT22;58753;49.440;11.126;2023-05-09T12:53:29;25.24;24.31
71096;DHT22;58753;49.440;11.126;2023-05-09T12:56:03;25.37;24.33
71096;DHT22;58753;49.440;11.126;2023-05-09T12:58:32;25.44;24.47
71096;DHT22;58753;49.440;11.126;2023-05-09T13:00:59;25.33;23.86
71096;DHT22;58753;49.440;11.126;2023-05-09T13:03:26;25.28;23.79
71096;DHT22;58753;49.440;11.126;2023-05-09T13:05:58;25.16;23.55
71096;DHT22;58753;49.440;11.126;2023-05-09T13:08:24;25.09;21.37
71096;DHT22;58753;49.440;11.126;2023-05-09T13:10:49;25.10;21.04
71096;DHT22;58753;49.440;11.126;2023-05-09T13:13:16;25.12;21.70
71096;DHT22;58753;49.440;11.126;2023-05-09T13:15:42;25.10;21.36
71096;DHT22;58753;49.440;11.126;2023-05-09T13:18:08;24.99;21.69
71096;DHT22;58753;49.440;11.126;2023-05-09T13:20:33;25.02;21.87
71096;DHT22;58753;49.440;11.126;2023-05-09T13:22:58;25.06;22.90
71096;DHT22;58753;49.440;11.126;2023-05-09T13:25:24;25.16;23.37
71096;DHT22;58753;49.440;11.126;2023-05-09T13:27:49;25.13;23.16
71096;DHT22;58753;49.440;11.126;2023-05-09T13:30:16;25.16;23.33
71096;DHT22;58753;49.440;11.126;2023-05-09T13:32:41;25.12;23.53
71096;DHT22;58753;49.440;11.126;2023-05-09T13:35:07;24.93;23.77
71096;DHT22;58753;49.440;11.126;2023-05-09T13:37:33;24.93;24.59
71096;DHT22;58753;49.440;11.126;2023-05-09T13:39:58;24.97;25.30
71096;DHT22;58753;49.440;11.126;2023-05-09T13:42:24;25.20;25.41
71096;DHT22;58753;49.440;11.126;2023-05-09T13:44:50;25.22;24.94
71096;DHT22;58753;49.440;11.126;2023-05-09T13:47:15;25.19;25.20
71096;DHT22;58753;49.440;11.126;2023-05-09T13:49:41;25.00;24.23
71096;DHT22;58753;49.440;11.126;2023-05-09T13:52:06;24.83;24.79
71096;DHT22;58753;49.440;11.126;2023-05-09T13:54:33;24.89;25.63
71096;DHT22;58753;49.440;11.126;2023-05-09T13:57:05;24.89;25.70
71096;DHT22;58753;49.440;11.126;2023-05-09T13:59:32;24.85;25.19
71096;DHT22;58753;49.440;11.126;2023-05-09T14:01:58;24.72;24.13
71096;DHT22;58753;49.440;11.126;2023-05-09T14:04:28;24.66;24.39
71096;DHT22;58753;49.440;11.126;2023-05-09T14:06:54;24.63;24.59
71096;DHT22;58753;49.440;11.126;2023-05-09T14:09:20;24.73;25.28
71096;DHT22;58753;49.440;11.126;2023-05-09T14:11:52;24.90;25.52
71096;DHT22;58753;49.440;11.126;2023-05-09T14:14:21;25.09;25.80
71096;DHT22;58753;49.440;11.126;2023-05-09T14:16:48;25.26;25.46
71096;DHT22;58753;49.440;11.126;2023-05-09T14:19:14;25.28;25.50
71096;DHT22;58753;49.440;11.126;2023-05-09T14:21:41;25.24;24.77
71096;DHT22;58753;49.440;11.126;2023-05-09T14:24:11;25.28;23.94
71096;DHT22;58753;49.440;11.126;2023-05-09T14:26:38;25.41;24.32
71096;DHT22;58753;49.440;11.126;2023-05-09T14:29:04;25.37;24.32
71096;DHT22;58753;49.440;11.126;2023-05-09T14:31:29;25.27;23.53
71096;DHT22;58753;49.440;11.126;2023-05-09T14:33:55;25.40;23.52
71096;DHT22;58753;49.440;11.126;2023-05-09T14:36:21;25.34;23.10
71096;DHT22;58753;49.440;11.126;2023-05-09T14:38:47;25.20;23.78
71096;DHT22;58753;49.440;11.126;2023-05-09T14:41:13;25.23;24.31
71096;DHT22;58753;49.440;11.126;2023-05-09T14:43:39;25.40;24.56
71096;DHT22;58753;49.440;11.126;2023-05-09T14:46:05;25.40;24.38
71096;DHT22;58753;49.440;11.126;2023-05-09T14:48:30;25.43;24.02
71096;DHT22;58753;49.440;11.126;2023-05-09T14:50:56;25.54;23.95
71096;DHT22;58753;49.440;11.126;2023-05-09T14:53:22;25.47;22.68
71096;DHT22;58753;49.440;11.126;2023-05-09T14:55:49;25.36;22.85
71096;DHT22;58753;49.440;11.126;2023-05-09T14:58:15;25.06;22.95
71096;DHT22;58753;49.440;11.126;2023-05-09T15:00:42;24.85;23.46
71096;DHT22;58753;49.440;11.126;2023-05-09T15:03:08;24.77;23.49
71096;DHT22;58753;49.440;11.126;2023-05-09T15:05:34;24.62;23.47
71096;DHT22;58753;49.440;11.126;2023-05-09T15:07:59;24.32;23.56
71096;DHT22;58753;49.440;11.126;2023-05-09T15:10:25;24.33;24.40
71096;DHT22;58753;49.440;11.126;2023-05-09T15:12:52;24.43;24.97
71096;DHT22;58753;49.440;11.126;2023-05-09T15:15:19;24.59;25.15
71096;DHT22;58753;49.440;11.126;2023-05-09T15:17:45;24.61;25.62
71096;DHT22;58753;49.440;11.126;2023-05-09T15:20:11;24.62;26.42
71096;DHT22;58753;49.440;11.126;2023-05-09T15:22:37;24.58;26.15
71096;DHT22;58753;49.440;11.126;2023-05-09T15:25:02;24.77;26.47
71096;DHT22;58753;49.440;11.126;2023-05-09T15:27:29;24.63;26.02
71096;DHT22;58753;49.440;11.126;2023-05-09T15:29:54;24.48;25.96
71096;DHT22;58753;49.440;11.126;2023-05-09T15:32:20;24.51;26.26
71096;DHT22;58753;49.440;11.126;2023-05-09T15:34:45;24.65;26.08
71096;DHT22;58753;49.440;11.126;2023-05-09T15:37:11;24.63;25.67
71096;DHT22;58753;49.440;11.126;2023-05-09T15:39:38;24.89;26.08
71096;DHT22;58753;49.440;11.126;2023-05-09T15:42:10;24.90;26.00